El Moro, Colorado
Current Conditions -  °F | °C
As of 12:54 AM on Friday 28 Nov 2014 (Local Time) from KTAD Reporting Station
Clear Clear  
Wind Chill: 31°   Ceiling: Unl
Heat Index: 39°   Visibility: 10mi
Dew Point: 22°   Wind: 15mph
Humidity: 50%   Direction: 240°WSW
Pressure: 30.17"   Gusts: NA
Location:  37.1661°N, 104.486°W
Report Text: KTAD 280754Z AUTO 24013KT 10SM CLR 04/M06 A3017 RMK AO2 SLP180 T00391056
Loading
Personal Weather Stations






























Interactive Weather Map New forecast layout! Learn more

10-Day Weather Forecast

Advertisements
Track Severe Weather on mobile